TimeCDT,TemperatureF,Dew PointF,Humidity,Sea Level PressureIn,VisibilityMPH,Wind Direction,Wind SpeedMPH,Gust SpeedMPH,PrecipitationIn,Events,Conditions,WindDirDegrees,DateUTC
12:18 AM,51.8,48.2,88,29.90,9.0,NNW,5.8,-,0.07,Rain,Light Rain,340,2011-10-27 05:18:00
12:54 AM,51.8,48.2,88,29.89,10.0,NNW,8.1,-,N/A,,Overcast,330,2011-10-27 05:54:00
1:04 AM,51.8,48.2,88,29.88,6.0,NNW,5.8,-,0.00,Rain,Light Rain,330,2011-10-27 06:04:00
1:44 AM,50.0,46.4,87,29.88,9.0,NNW,9.2,-,0.04,Rain,Light Rain,340,2011-10-27 06:44:00
1:54 AM,50.0,46.9,89,29.88,8.0,North,8.1,-,0.04,Rain,Light Rain,350,2011-10-27 06:54:00
2:14 AM,50.0,48.2,94,29.88,8.0,NNW,5.8,-,0.01,Rain,Light Rain,340,2011-10-27 07:14:00
2:33 AM,50.0,46.4,87,29.88,6.0,NW,5.8,-,0.02,Rain,Light Rain,320,2011-10-27 07:33:00
2:54 AM,50.0,46.4,87,29.88,5.0,NNW,8.1,-,N/A,Rain,Rain,330,2011-10-27 07:54:00
3:30 AM,50.0,46.4,87,29.89,8.0,NW,5.8,-,0.01,,Overcast,320,2011-10-27 08:30:00
3:54 AM,50.0,46.9,89,29.88,8.0,NNW,6.9,-,0.01,,Overcast,330,2011-10-27 08:54:00
4:20 AM,50.0,46.4,87,29.88,8.0,NNW,10.4,-,N/A,,Overcast,330,2011-10-27 09:20:00
4:54 AM,50.0,46.0,86,29.90,8.0,NNW,8.1,-,N/A,,Overcast,330,2011-10-27 09:54:00
5:38 AM,48.2,44.6,87,29.92,8.0,NNW,5.8,-,N/A,,Overcast,330,2011-10-27 10:38:00
5:49 AM,48.2,44.6,87,29.91,8.0,NNW,8.1,-,N/A,,Overcast,340,2011-10-27 10:49:00
5:54 AM,48.9,45.0,86,29.91,7.0,NNW,10.4,19.6,N/A,,Overcast,330,2011-10-27 10:54:00
6:54 AM,48.9,45.0,86,29.93,7.0,NW,6.9,-,N/A,,Overcast,320,2011-10-27 11:54:00
7:54 AM,48.0,43.0,83,29.96,6.0,NW,8.1,-,N/A,,Overcast,320,2011-10-27 12:54:00
8:54 AM,48.9,43.0,80,29.99,10.0,NNW,9.2,19.6,N/A,,Overcast,340,2011-10-27 13:54:00
9:54 AM,50.0,44.1,80,29.99,6.0,North,8.1,18.4,N/A,,Overcast,350,2011-10-27 14:54:00
10:11 AM,50.0,42.8,76,29.99,10.0,NNW,10.4,16.1,N/A,,Overcast,330,2011-10-27 15:11:00
10:54 AM,51.1,43.0,74,30.00,10.0,North,12.7,21.9,N/A,,Overcast,350,2011-10-27 15:54:00
11:54 AM,51.1,42.1,71,30.04,10.0,NNW,8.1,-,N/A,,Overcast,340,2011-10-27 16:54:00
12:42 PM,51.8,42.8,71,30.03,10.0,NNW,6.9,-,N/A,,Mostly Cloudy,340,2011-10-27 17:42:00
12:54 PM,50.0,41.0,71,30.03,10.0,NNW,6.9,-,N/A,,Mostly Cloudy,330,2011-10-27 17:54:00
1:54 PM,50.0,39.9,68,30.02,10.0,North,9.2,17.3,N/A,,Mostly Cloudy,350,2011-10-27 18:54:00
2:36 PM,51.8,41.0,67,30.03,10.0,NW,8.1,-,N/A,,Mostly Cloudy,320,2011-10-27 19:36:00
2:54 PM,52.0,41.0,66,30.04,10.0,NNW,6.9,-,N/A,,Mostly Cloudy,330,2011-10-27 19:54:00
3:01 PM,53.6,41.0,62,30.04,10.0,NNW,6.9,-,N/A,,Mostly Cloudy,340,2011-10-27 20:01:00
3:54 PM,53.1,37.9,57,30.05,10.0,North,11.5,17.3,N/A,,Mostly Cloudy,360,2011-10-27 20:54:00
4:54 PM,52.0,39.0,61,30.06,10.0,North,9.2,-,N/A,,Mostly Cloudy,10,2011-10-27 21:54:00
5:54 PM,50.0,37.9,63,30.09,10.0,North,5.8,-,N/A,,Mostly Cloudy,10,2011-10-27 22:54:00
6:54 PM,48.0,37.9,68,30.12,10.0,NNE,4.6,-,N/A,,Clear,20,2011-10-27 23:54:00
7:54 PM,46.9,37.9,71,30.14,10.0,Calm,Calm,-,N/A,,Clear,0,2011-10-28 00:54:00
8:54 PM,46.9,37.9,71,30.16,10.0,Calm,Calm,-,N/A,,Clear,0,2011-10-28 01:54:00
9:54 PM,42.1,36.0,79,30.15,10.0,NNE,4.6,-,N/A,,Clear,20,2011-10-28 02:54:00
10:54 PM,41.0,36.0,82,30.15,10.0,NNE,4.6,-,N/A,,Clear,30,2011-10-28 03:54:00
11:54 PM,41.0,36.0,82,30.14,10.0,Calm,Calm,-,N/A,,Clear,0,2011-10-28 04:54:00